createdAt,value
2023-06-29T00:04:00.379Z,6.60
2023-06-29T00:09:06.243Z,4.90
2023-06-29T00:14:10.741Z,5.60
2023-06-29T00:19:16.388Z,4.20
2023-06-29T00:24:21.345Z,3.70
2023-06-29T00:29:25.588Z,5.90
2023-06-29T00:34:29.839Z,3.40
2023-06-29T00:39:34.790Z,5.70
2023-06-29T00:44:39.125Z,4.20
2023-06-29T00:49:43.584Z,3.80
2023-06-29T00:54:48.219Z,4.30
2023-06-29T00:59:53.598Z,3.10
2023-06-29T01:04:59.369Z,4.60
2023-06-29T01:10:05.551Z,3.20
2023-06-29T01:15:12.743Z,2.50
2023-06-29T01:20:17.898Z,3.00
2023-06-29T01:25:22.240Z,4.60
2023-06-29T01:30:27.891Z,2.80
2023-06-29T01:35:34.112Z,3.40
2023-06-29T01:40:39.817Z,4.60
2023-06-29T01:45:45.246Z,6.50
2023-06-29T01:50:50.579Z,4.90
2023-06-29T01:55:54.738Z,4.10
2023-06-29T02:00:59.156Z,2.80
2023-06-29T02:06:03.303Z,3.40
2023-06-29T02:11:07.835Z,2.10
2023-06-29T02:16:12.139Z,2.70
2023-06-29T02:21:16.621Z,4.40
2023-06-29T02:26:21.066Z,2.40
2023-06-29T02:31:25.041Z,3.80
2023-06-29T02:36:29.325Z,3.20
2023-06-29T02:41:33.617Z,3.80
2023-06-29T02:46:37.838Z,2.30
2023-06-29T02:51:42.024Z,4.10
2023-06-29T02:56:47.325Z,3.00
2023-06-29T03:01:51.340Z,3.80
2023-06-29T03:06:55.805Z,2.40
2023-06-29T03:12:00.028Z,2.60
2023-06-29T03:17:04.506Z,2.80
2023-06-29T03:22:08.390Z,2.10
2023-06-29T03:27:12.931Z,4.00
2023-06-29T03:32:17.276Z,1.90
2023-06-29T03:37:21.200Z,3.80
2023-06-29T03:42:25.441Z,1.60
2023-06-29T03:47:29.682Z,1.40
2023-06-29T03:52:33.924Z,1.80
2023-06-29T03:57:38.054Z,3.00
2023-06-29T04:02:42.414Z,2.30
2023-06-29T04:07:46.620Z,2.70
2023-06-29T04:12:50.761Z,1.50
2023-06-29T04:17:54.998Z,2.50
2023-06-29T04:22:59.041Z,1.80
2023-06-29T04:28:03.173Z,2.10
2023-06-29T04:33:11.699Z,1.60
2023-06-29T04:38:15.739Z,1.60
2023-06-29T04:43:19.870Z,1.50
2023-06-29T04:48:30.494Z,1.40
2023-06-29T04:53:36.424Z,1.80
2023-06-29T04:58:40.974Z,2.00
2023-06-29T05:03:45.114Z,2.10
2023-06-29T05:08:49.972Z,1.60
2023-06-29T05:13:54.091Z,4.10
2023-06-29T05:18:58.144Z,1.40
2023-06-29T05:24:03.553Z,3.30
2023-06-29T05:29:07.626Z,3.80
2023-06-29T05:34:11.958Z,2.00
2023-06-29T05:39:16.526Z,2.20
2023-06-29T05:44:20.755Z,3.50
2023-06-29T05:49:26.534Z,4.20
2023-06-29T05:54:30.678Z,4.80
2023-06-29T05:59:35.202Z,4.70
2023-06-29T06:04:39.471Z,3.90
2023-06-29T06:09:43.477Z,5.30
2023-06-29T06:14:47.521Z,4.30
2023-06-29T06:19:51.957Z,3.00
2023-06-29T06:24:56.115Z,5.00
2023-06-29T06:30:00.532Z,3.40
2023-06-29T06:35:06.242Z,4.00
2023-06-29T06:40:11.157Z,7.70
2023-06-29T06:45:15.592Z,6.20
2023-06-29T06:50:20.030Z,6.40
2023-06-29T06:55:24.055Z,8.30
2023-06-29T07:00:29.005Z,10.70
2023-06-29T07:05:33.552Z,5.40
2023-06-29T07:10:37.903Z,21.10
2023-06-29T07:15:41.825Z,9.70
2023-06-29T07:25:53.569Z,7.90
2023-06-29T07:30:57.551Z,9.70
2023-06-29T07:36:01.946Z,8.80
2023-06-29T07:41:07.007Z,6.90
2023-06-29T07:46:11.247Z,7.90
2023-06-29T07:51:16.296Z,4.80
2023-06-29T07:56:20.744Z,8.40
2023-06-29T08:01:25.030Z,9.10
2023-06-29T08:11:36.111Z,5.40
2023-06-29T08:16:40.362Z,7.90
2023-06-29T08:21:44.701Z,8.40
2023-06-29T08:26:49.025Z,10.80
2023-06-29T08:31:53.557Z,6.20
2023-06-29T08:36:57.954Z,6.50
2023-06-29T08:42:05.140Z,6.50
2023-06-29T08:47:12.656Z,7.00
2023-06-29T08:52:20.108Z,6.60
2023-06-29T08:57:25.408Z,9.10
2023-06-29T09:02:30.440Z,4.00
2023-06-29T09:07:35.946Z,7.60
2023-06-29T09:12:40.482Z,5.80
2023-06-29T09:17:47.546Z,4.40
2023-06-29T09:22:55.195Z,3.60
2023-06-29T09:28:04.060Z,2.90
2023-06-29T09:33:13.442Z,3.00
2023-06-29T09:38:18.209Z,3.30
2023-06-29T09:43:30.112Z,3.00
2023-06-29T09:53:41.087Z,3.40
2023-06-29T09:58:45.674Z,3.80
2023-06-29T10:03:49.759Z,4.50
2023-06-29T10:08:59.722Z,1.90
2023-06-29T10:14:05.934Z,2.30
2023-06-29T10:19:20.787Z,2.10
2023-06-29T10:24:32.402Z,4.10
2023-06-29T10:35:03.204Z,2.30
2023-06-29T10:40:26.350Z,3.60
2023-06-29T10:45:32.434Z,2.50
2023-06-29T10:50:42.127Z,1.80
2023-06-29T10:55:54.805Z,2.20
2023-06-29T11:00:59.051Z,3.90
2023-06-29T11:06:04.223Z,2.50
2023-06-29T11:11:18.098Z,1.70
2023-06-29T11:16:22.328Z,2.00
2023-06-29T11:21:26.927Z,2.90
2023-06-29T11:26:30.968Z,2.80
2023-06-29T11:31:35.089Z,2.50
2023-06-29T11:36:40.058Z,3.50
2023-06-29T11:41:44.394Z,3.20
2023-06-29T11:46:54.829Z,2.90
2023-06-29T11:57:19.333Z,3.50
2023-06-29T12:02:25.055Z,2.10
2023-06-29T12:07:46.318Z,3.30
2023-06-29T12:12:57.470Z,2.20
2023-06-29T12:18:10.787Z,1.70
2023-06-29T12:23:16.013Z,6.00
2023-06-29T12:28:20.794Z,2.30
2023-06-29T12:33:24.691Z,1.50
2023-06-29T12:38:28.836Z,2.20
2023-06-29T12:43:33.062Z,3.00
2023-06-29T12:48:40.902Z,2.70
2023-06-29T12:53:44.926Z,1.70
2023-06-29T12:58:48.947Z,2.40
2023-06-29T13:03:53.418Z,1.30
2023-06-29T13:08:57.742Z,4.70
2023-06-29T13:14:02.391Z,1.80
2023-06-29T13:19:06.320Z,2.70
2023-06-29T13:24:10.401Z,3.80
2023-06-29T13:29:14.481Z,2.50
2023-06-29T13:34:19.340Z,1.90
2023-06-29T13:39:23.657Z,3.60
2023-06-29T13:44:28.121Z,2.20
2023-06-29T13:49:32.361Z,1.60
2023-06-29T13:54:36.987Z,2.40
2023-06-29T13:59:42.283Z,3.40
2023-06-29T14:04:48.214Z,2.70
2023-06-29T14:09:52.256Z,1.70
2023-06-29T14:14:56.426Z,2.50
2023-06-29T14:20:01.159Z,2.30
2023-06-29T14:25:05.698Z,2.00
2023-06-29T14:30:12.340Z,2.40
2023-06-29T14:35:32.040Z,4.20
2023-06-29T14:40:37.948Z,2.40
2023-06-29T14:45:42.437Z,3.90
2023-06-29T14:50:47.903Z,5.40
2023-06-29T14:56:06.393Z,2.00
2023-06-29T15:01:10.497Z,1.90
2023-06-29T15:06:14.797Z,1.90
2023-06-29T15:11:18.728Z,3.10
2023-06-29T15:16:22.864Z,4.20
2023-06-29T15:21:27.402Z,4.40
2023-06-29T15:26:31.869Z,2.50
2023-06-29T15:31:36.258Z,5.40
2023-06-29T15:36:40.650Z,5.90
2023-06-29T15:41:50.724Z,9.60
2023-06-29T15:46:56.209Z,4.00
2023-06-29T15:52:00.938Z,10.20
2023-06-29T15:57:05.103Z,12.20
2023-06-29T16:02:10.095Z,5.10
2023-06-29T16:07:14.991Z,6.00
2023-06-29T16:12:18.918Z,5.00
2023-06-29T16:17:22.742Z,8.30
2023-06-29T16:22:28.019Z,3.90
2023-06-29T16:27:32.918Z,2.90
2023-06-29T16:32:37.117Z,2.50
2023-06-29T16:37:44.879Z,2.80
2023-06-29T16:42:49.729Z,2.40
2023-06-29T16:47:53.985Z,2.30
2023-06-29T16:52:58.210Z,43.30
2023-06-29T16:58:04.093Z,91.10
2023-06-29T17:03:08.402Z,80.60
2023-06-29T17:08:12.655Z,48.70
2023-06-29T17:13:16.806Z,32.20
2023-06-29T17:18:21.065Z,20.60
2023-06-29T17:23:25.268Z,14.70
2023-06-29T17:28:29.745Z,10.70
2023-06-29T17:33:49.356Z,13.90
2023-06-29T17:38:58.182Z,17.70
2023-06-29T17:44:02.704Z,5.60
2023-06-29T17:49:07.429Z,4.50
2023-06-29T17:54:12.296Z,10.50
2023-06-29T17:59:16.917Z,4.50
2023-06-29T18:04:22.743Z,5.80
2023-06-29T18:09:28.573Z,11.40
2023-06-29T18:14:33.537Z,8.30
2023-06-29T18:19:38.507Z,4.30
2023-06-29T18:24:43.068Z,5.20
2023-06-29T18:29:47.978Z,4.40
2023-06-29T18:34:52.462Z,4.20
2023-06-29T18:39:58.182Z,4.10
2023-06-29T18:45:07.356Z,8.30
2023-06-29T18:50:12.927Z,11.70
2023-06-29T18:55:17.964Z,6.10
2023-06-29T19:00:22.317Z,7.10
2023-06-29T19:05:26.877Z,7.40
2023-06-29T19:10:31.100Z,5.40
2023-06-29T19:15:35.580Z,4.50
2023-06-29T19:20:40.288Z,4.30
2023-06-29T19:25:45.246Z,6.60
2023-06-29T19:30:50.215Z,3.80
2023-06-29T19:35:54.646Z,6.90
2023-06-29T19:41:00.415Z,5.30
2023-06-29T19:46:05.712Z,4.00
2023-06-29T19:51:10.564Z,3.50
2023-06-29T19:56:15.216Z,6.30
2023-06-29T20:01:20.438Z,9.60
2023-06-29T20:06:26.042Z,4.40
2023-06-29T20:11:33.623Z,6.00
2023-06-29T20:16:38.990Z,3.20
2023-06-29T20:21:44.173Z,6.80
2023-06-29T20:26:49.300Z,4.30
2023-06-29T20:31:54.006Z,7.50
2023-06-29T20:36:58.580Z,6.50
2023-06-29T20:42:03.776Z,5.10
2023-06-29T20:47:10.030Z,5.00
2023-06-29T20:52:14.281Z,4.90
2023-06-29T20:57:22.962Z,5.70
2023-06-29T21:02:27.304Z,8.70
2023-06-29T21:07:31.683Z,11.30
2023-06-29T21:12:36.584Z,4.70
2023-06-29T21:17:41.212Z,7.30
2023-06-29T21:22:46.521Z,6.40
2023-06-29T21:27:50.774Z,5.30
2023-06-29T21:32:56.713Z,6.90
2023-06-29T21:38:01.298Z,5.70
2023-06-29T21:43:05.226Z,5.30
2023-06-29T21:48:10.219Z,5.60
2023-06-29T21:53:15.477Z,4.90
2023-06-29T21:58:20.437Z,4.50
2023-06-29T22:03:24.634Z,4.50
2023-06-29T22:08:28.877Z,6.00
2023-06-29T22:13:33.213Z,7.10
2023-06-29T22:18:37.131Z,7.80
2023-06-29T22:23:41.090Z,5.30
2023-06-29T22:28:45.722Z,4.30
2023-06-29T22:33:49.755Z,7.50
2023-06-29T22:38:54.295Z,6.60
2023-06-29T22:44:00.668Z,7.80
2023-06-29T22:49:04.728Z,6.90
2023-06-29T22:54:10.394Z,5.40
2023-06-29T22:59:14.424Z,8.00
2023-06-29T23:04:18.653Z,4.00
2023-06-29T23:09:23.924Z,5.30
2023-06-29T23:14:27.884Z,3.20
2023-06-29T23:19:35.354Z,3.90
2023-06-29T23:24:39.512Z,4.30
2023-06-29T23:29:43.503Z,3.70
2023-06-29T23:34:47.462Z,3.20
2023-06-29T23:39:51.609Z,3.40
2023-06-29T23:44:55.736Z,4.20
2023-06-29T23:50:01.305Z,3.40
2023-06-29T23:55:07.666Z,3.20
